Time;durP1;ratioP1;P1;durP2;ratioP2;P2;SDS_P1;SDS_P2;PMS_P1;PMS_P2;Temp;Humidity;BMP_temperature;BMP_pressure;BME280_temperature;BME280_humidity;BME280_pressure;Samples;Min_cycle;Max_cycle;Signal;HPM_P1;HPM_P2
2023/10/21 00:02:08;;;;;;;;;;;;;;;16.16;63.01;98232.97;4956015;29;19915;-75
2023/10/21 00:04:33;;;;;;;;;;;;;;;16.15;62.89;98242.28;4956485;28;19921;-75
2023/10/21 00:06:58;;;;;;;;;;;;;;;16.15;63.03;98230.56;4930329;29;19926;-75
2023/10/21 00:09:24;;;;;;;;;;;;;;;16.14;63.20;98237.16;4947682;29;19957;-75
2023/10/21 00:11:49;;;;;;;;;;;;;;;16.14;63.18;98240.66;4934639;29;20386;-76
2023/10/21 00:14:14;;;;;;;;;;;;;;;16.14;62.74;98245.31;4940042;29;20779;-75
2023/10/21 00:16:40;;;;;;;;;;;;;;;16.12;63.18;98245.66;4945862;28;19922;-73
2023/10/21 00:19:05;;;;;;;;;;;;;;;16.11;63.04;98241.34;4972250;28;19922;-78
2023/10/21 00:21:30;;;;;;;;;;;;;;;16.11;63.01;98246.00;4957367;28;19925;-76
2023/10/21 00:23:56;;;;;;;;;;;;;;;16.10;63.21;98244.41;4955760;28;19930;-75
2023/10/21 00:26:22;;;;;;;;;;;;;;;16.09;62.69;98240.91;4952672;29;19918;-77
2023/10/21 00:28:47;;;;;;;;;;;;;;;16.09;63.00;98245.56;4971123;28;19922;-75
2023/10/21 00:31:12;;;;;;;;;;;;;;;16.08;63.21;98242.03;4956063;28;19977;-75
2023/10/21 00:33:37;;;;;;;;;;;;;;;16.08;63.16;98254.88;4947071;28;19929;-76
2023/10/21 00:36:03;;;;;;;;;;;;;;;16.07;62.85;98254.06;4952566;29;19965;-75
2023/10/21 00:38:29;;;;;;;;;;;;;;;16.06;62.97;98266.09;4951940;29;20359;-75
2023/10/21 00:40:55;;;;;;;;;;;;;;;16.05;62.95;98261.78;4941963;29;20294;-75
2023/10/21 00:43:36;;;;;;;;;;;;;;;16.06;63.09;98268.03;4937482;29;19926;-75
2023/10/21 00:46:04;;;;;;;;;;;;;;;16.05;63.19;98263.69;4941819;29;20235;-76
2023/10/21 00:48:29;;;;;;;;;;;;;;;16.04;63.10;98270.28;4956529;28;19914;-76
2023/10/21 00:50:54;;;;;;;;;;;;;;;16.02;62.81;98271.41;4955574;28;19918;-74
2023/10/21 00:53:20;;;;;;;;;;;;;;;16.02;63.09;98267.88;4942472;29;19974;-76
2023/10/21 00:55:45;;;;;;;;;;;;;;;16.02;63.04;98274.13;4956888;29;19918;-75
2023/10/21 00:58:11;;;;;;;;;;;;;;;16.02;63.03;98284.22;4941793;28;19923;-75
2023/10/21 01:00:37;;;;;;;;;;;;;;;16.01;63.11;98278.00;4946082;28;19923;-74
2023/10/21 01:03:02;;;;;;;;;;;;;;;16.01;63.12;98274.47;4951532;29;19978;-76
2023/10/21 01:05:27;;;;;;;;;;;;;;;16.00;63.13;98281.84;4945946;29;19925;-74
2023/10/21 01:07:57;;;;;;;;;;;;;;;16.00;62.77;98278.31;4935759;29;20390;-75
2023/10/21 01:10:23;;;;;;;;;;;;;;;15.99;62.88;98285.69;4952218;29;20295;-74
2023/10/21 01:12:49;;;;;;;;;;;;;;;15.99;62.75;98293.06;4965106;28;19929;-74
2023/10/21 01:15:14;;;;;;;;;;;;;;;15.98;62.89;98295.00;4936532;29;19922;-74
2023/10/21 01:17:40;;;;;;;;;;;;;;;15.98;62.80;98302.41;4952073;28;20360;-75
2023/10/21 01:20:06;;;;;;;;;;;;;;;15.97;63.07;98301.56;4958425;28;19923;-74
2023/10/21 01:22:31;;;;;;;;;;;;;;;15.96;62.79;98308.16;4960770;28;19925;-75
2023/10/21 01:24:56;;;;;;;;;;;;;;;15.96;63.01;98310.88;4944763;29;19923;-74
2023/10/21 01:27:23;;;;;;;;;;;;;;;15.95;63.05;98308.50;4944773;29;20363;-75
2023/10/21 01:29:48;;;;;;;;;;;;;;;15.94;63.03;98320.53;4940543;29;20418;-74
2023/10/21 01:32:13;;;;;;;;;;;;;;;15.94;63.14;98326.75;4950992;29;19918;-74
2023/10/21 01:34:38;;;;;;;;;;;;;;;15.92;63.09;98329.03;4943757;28;19918;-75
2023/10/21 01:37:04;;;;;;;;;;;;;;;15.93;63.04;98340.72;4936314;29;19919;-75
2023/10/21 01:39:29;;;;;;;;;;;;;;;15.91;62.73;98334.81;4936472;29;19941;-75
2023/10/21 01:41:54;;;;;;;;;;;;;;;15.92;62.84;98339.13;4946537;29;19919;-74
2023/10/21 01:44:19;;;;;;;;;;;;;;;15.91;63.00;98337.53;4938092;29;20363;-75
2023/10/21 01:46:45;;;;;;;;;;;;;;;15.91;62.78;98342.97;4953537;29;20017;-74
2023/10/21 01:49:10;;;;;;;;;;;;;;;15.90;63.13;98355.81;4970921;28;20374;-78
2023/10/21 01:51:36;;;;;;;;;;;;;;;15.89;62.84;98356.13;4954241;28;19997;-74
2023/10/21 01:54:01;;;;;;;;;;;;;;;15.88;62.92;98358.06;4954190;29;19922;-74
2023/10/21 01:56:26;;;;;;;;;;;;;;;15.87;63.01;98359.19;4954633;28;19922;-74
2023/10/21 01:58:51;;;;;;;;;;;;;;;15.87;63.06;98344.78;4954149;28;19918;-74
2023/10/21 02:01:17;;;;;;;;;;;;;;;15.85;62.87;98364.19;4945025;29;19926;-75
2023/10/21 02:03:42;;;;;;;;;;;;;;;15.85;62.87;98360.66;4958526;28;19974;-74
2023/10/21 02:06:08;;;;;;;;;;;;;;;15.85;63.20;98360.66;4951202;28;20344;-75
2023/10/21 02:08:33;;;;;;;;;;;;;;;15.85;62.86;98366.09;4950700;28;19923;-74
2023/10/21 02:10:58;;;;;;;;;;;;;;;15.83;62.87;98374.59;4957077;28;20365;-74
2023/10/21 02:13:24;;;;;;;;;;;;;;;15.83;62.81;98365.66;4951155;28;19922;-74
2023/10/21 02:15:50;;;;;;;;;;;;;;;15.83;62.94;98384.72;4935822;29;19930;-75
2023/10/21 02:18:16;;;;;;;;;;;;;;;15.83;62.94;98382.78;4950314;29;19929;-75
2023/10/21 02:20:41;;;;;;;;;;;;;;;15.83;63.20;98380.06;4943870;29;19922;-74
2023/10/21 02:23:06;;;;;;;;;;;;;;;15.82;62.90;98383.88;4946880;29;19926;-74
2023/10/21 02:25:32;;;;;;;;;;;;;;;15.82;63.02;98388.53;4944164;29;20355;-75
2023/10/21 02:27:58;;;;;;;;;;;;;;;15.81;63.06;98382.31;4953616;29;19921;-75
2023/10/21 02:30:23;;;;;;;;;;;;;;;15.80;63.24;98388.91;4953010;28;19922;-74
2023/10/21 02:32:48;;;;;;;;;;;;;;;15.81;63.09;98386.97;4938109;28;20409;-74
2023/10/21 02:35:14;;;;;;;;;;;;;;;15.79;63.02;98390.00;4962918;28;20001;-74
2023/10/21 02:37:40;;;;;;;;;;;;;;;15.79;63.31;98398.19;4949923;29;19915;-75
2023/10/21 02:40:06;;;;;;;;;;;;;;;15.79;63.20;98395.44;4935921;29;19918;-74
2023/10/21 02:42:31;;;;;;;;;;;;;;;15.78;63.03;98402.81;4948795;29;19930;-74
2023/10/21 02:44:57;;;;;;;;;;;;;;;15.78;62.94;98408.28;4952946;29;19926;-75
2023/10/21 02:47:22;;;;;;;;;;;;;;;15.78;63.18;98407.47;4966126;28;20013;-75
2023/10/21 02:49:47;;;;;;;;;;;;;;;15.77;63.06;98411.31;4950416;29;20394;-75
2023/10/21 02:52:13;;;;;;;;;;;;;;;15.77;63.00;98419.47;4961901;28;19923;-75
2023/10/21 02:54:38;;;;;;;;;;;;;;;15.76;63.16;98423.34;4952167;29;19926;-74
2023/10/21 02:57:04;;;;;;;;;;;;;;;15.76;63.00;98426.06;4937027;29;20398;-75
2023/10/21 02:59:30;;;;;;;;;;;;;;;15.74;63.31;98420.94;4947555;29;20005;-75
2023/10/21 03:01:55;;;;;;;;;;;;;;;15.74;63.02;98425.59;4952317;28;19981;-74
2023/10/21 03:04:21;;;;;;;;;;;;;;;15.74;62.97;98423.66;4951427;29;20009;-75
2023/10/21 03:06:46;;;;;;;;;;;;;;;15.74;63.31;98428.31;4949409;29;20365;-75
2023/10/21 03:09:11;;;;;;;;;;;;;;;15.74;62.96;98431.03;4935021;29;19954;-74
2023/10/21 03:11:36;;;;;;;;;;;;;;;15.73;63.30;98427.53;4950105;28;19999;-75
2023/10/21 03:14:02;;;;;;;;;;;;;;;15.72;63.15;98434.13;4952098;29;19926;-75
2023/10/21 03:16:27;;;;;;;;;;;;;;;15.72;62.94;98434.13;4967615;28;19922;-75
2023/10/21 03:18:52;;;;;;;;;;;;;;;15.73;63.31;98443.06;4936878;28;20001;-75
2023/10/21 03:21:18;;;;;;;;;;;;;;;15.71;63.06;98440.66;4935399;29;19915;-75
2023/10/21 03:23:44;;;;;;;;;;;;;;;15.71;63.05;98446.13;4932205;29;19926;-75
2023/10/21 03:26:09;;;;;;;;;;;;;;;15.71;63.19;98453.50;4939573;29;19995;-75
2023/10/21 03:28:35;;;;;;;;;;;;;;;15.70;63.13;98455.41;4949293;28;19919;-76
2023/10/21 03:31:01;;;;;;;;;;;;;;;15.69;63.22;98453.81;4937791;29;19945;-75
2023/10/21 03:33:27;;;;;;;;;;;;;;;15.69;63.08;98456.53;4952242;29;19924;-75
2023/10/21 03:35:56;;;;;;;;;;;;;;;15.70;63.26;98451.88;4953592;28;20287;-75
2023/10/21 03:38:22;;;;;;;;;;;;;;;15.69;63.15;98455.72;4945011;29;20381;-79
2023/10/21 03:40:54;;;;;;;;;;;;;;;15.69;63.20;98470.13;4934571;29;19919;-75
2023/10/21 03:43:19;;;;;;;;;;;;;;;15.68;63.08;98473.97;4934566;29;19914;-75
2023/10/21 03:45:45;;;;;;;;;;;;;;;15.67;63.01;98477.81;4948715;28;20282;-74
2023/10/21 03:48:10;;;;;;;;;;;;;;;15.67;63.29;98477.00;4949492;29;20005;-75
2023/10/21 03:50:35;;;;;;;;;;;;;;;15.68;63.08;98489.50;4937840;28;19926;-74
2023/10/21 03:53:00;;;;;;;;;;;;;;;15.67;63.15;98496.06;4934515;29;19993;-74
2023/10/21 03:55:26;;;;;;;;;;;;;;;15.67;63.16;98504.22;4949001;29;19926;-74
2023/10/21 03:57:51;;;;;;;;;;;;;;;15.66;63.30;98499.94;4944432;29;19919;-75
2023/10/21 04:00:17;;;;;;;;;;;;;;;15.66;63.16;98508.09;4943327;29;19934;-74
2023/10/21 04:02:42;;;;;;;;;;;;;;;15.66;63.23;98516.25;4934172;29;19926;-74
2023/10/21 04:05:08;;;;;;;;;;;;;;;15.64;63.17;98515.78;4949449;28;20363;-75
2023/10/21 04:07:34;;;;;;;;;;;;;;;15.64;63.30;98513.06;4940335;29;19922;-73
2023/10/21 04:09:59;;;;;;;;;;;;;;;15.64;63.08;98516.56;4937682;29;19923;-74
2023/10/21 04:12:24;;;;;;;;;;;;;;;15.63;63.38;98519.63;4933313;29;19926;-73
2023/10/21 04:14:49;;;;;;;;;;;;;;;15.61;63.35;98524.63;4934447;29;20266;-74
2023/10/21 04:17:15;;;;;;;;;;;;;;;15.60;63.28;98521.09;4936230;29;19922;-74
2023/10/21 04:19:40;;;;;;;;;;;;;;;15.60;63.42;98534.72;4948435;28;20375;-74
2023/10/21 04:22:05;;;;;;;;;;;;;;;15.59;63.31;98535.81;4949099;28;19977;-74
2023/10/21 04:24:30;;;;;;;;;;;;;;;15.57;63.29;98536.16;4948812;28;19922;-76
2023/10/21 04:26:56;;;;;;;;;;;;;;;15.56;63.28;98540.00;4934444;29;19923;-74
2023/10/21 04:29:21;;;;;;;;;;;;;;;15.56;63.30;98544.66;4951896;29;19922;-74
2023/10/21 04:31:46;;;;;;;;;;;;;;;15.55;63.14;98548.50;4948888;29;19926;-74
2023/10/21 04:34:12;;;;;;;;;;;;;;;15.54;63.50;98547.69;4957018;28;20028;-74
2023/10/21 04:36:38;;;;;;;;;;;;;;;15.53;63.33;98559.69;4950059;29;19927;-74
2023/10/21 04:39:03;;;;;;;;;;;;;;;15.54;63.52;98555.06;4949152;28;19919;-75
2023/10/21 04:41:29;;;;;;;;;;;;;;;15.54;63.41;98557.78;4952044;29;19957;-76
2023/10/21 04:43:55;;;;;;;;;;;;;;;15.52;63.22;98560.84;4941180;28;19922;-74
2023/10/21 04:46:20;;;;;;;;;;;;;;;15.53;63.17;98556.19;4961857;28;19922;-74
2023/10/21 04:48:45;;;;;;;;;;;;;;;15.53;63.15;98564.34;4953682;28;19918;-74
2023/10/21 04:51:11;;;;;;;;;;;;;;;15.53;63.20;98567.06;4947124;28;19927;-74
2023/10/21 04:53:37;;;;;;;;;;;;;;;15.54;63.19;98568.66;4941953;29;19926;-74
2023/10/21 04:56:03;;;;;;;;;;;;;;;15.53;63.06;98570.59;4952134;29;20331;-74
2023/10/21 04:58:28;;;;;;;;;;;;;;;15.53;63.36;98580.69;4939949;29;20393;-75
2023/10/21 05:00:53;;;;;;;;;;;;;;;15.53;63.25;98588.84;4952341;29;20084;-74
2023/10/21 05:03:19;;;;;;;;;;;;;;;15.53;63.20;98588.84;4937193;29;20248;-75
2023/10/21 05:05:44;;;;;;;;;;;;;;;15.51;63.35;98581.00;4955603;29;19930;-75
2023/10/21 05:08:09;;;;;;;;;;;;;;;15.52;63.28;98590.78;4971293;28;19978;-75
2023/10/21 05:10:34;;;;;;;;;;;;;;;15.52;63.14;98592.66;4960738;28;20389;-75
2023/10/21 05:13:00;;;;;;;;;;;;;;;15.52;63.46;98598.94;4937146;29;19914;-75
2023/10/21 05:15:25;;;;;;;;;;;;;;;15.53;63.35;98602.44;4937301;29;19966;-75
2023/10/21 05:17:50;;;;;;;;;;;;;;;15.51;63.38;98599.25;4951754;28;20174;-75
2023/10/21 05:20:15;;;;;;;;;;;;;;;15.51;63.43;98608.22;4947422;29;20359;-75
2023/10/21 05:22:41;;;;;;;;;;;;;;;15.51;63.20;98607.41;4954128;28;19969;-75
2023/10/21 05:25:07;;;;;;;;;;;;;;;15.51;63.36;98607.41;4939189;29;19915;-75
2023/10/21 05:27:34;;;;;;;;;;;;;;;15.51;63.18;98612.84;4935480;29;19919;-78
2023/10/21 05:30:00;;;;;;;;;;;;;;;15.50;63.21;98611.28;4944704;29;19919;-76
2023/10/21 05:32:25;;;;;;;;;;;;;;;15.51;63.18;98623.75;4952023;29;20103;-74
2023/10/21 05:34:50;;;;;;;;;;;;;;;15.51;63.15;98621.03;4954169;29;19918;-75
2023/10/21 05:37:16;;;;;;;;;;;;;;;15.50;63.47;98622.94;4954737;28;20371;-74
2023/10/21 05:39:41;;;;;;;;;;;;;;;15.51;63.14;98629.97;4940794;28;19961;-75
2023/10/21 05:42:06;;;;;;;;;;;;;;;15.51;63.43;98629.19;4949629;29;19922;-74
2023/10/21 05:44:31;;;;;;;;;;;;;;;15.50;63.17;98631.09;4945136;28;20046;-75
2023/10/21 05:46:58;;;;;;;;;;;;;;;15.50;63.13;98630.31;4933788;29;19922;-74
2023/10/21 05:49:23;;;;;;;;;;;;;;;15.49;63.21;98629.50;4951079;28;19925;-74
2023/10/21 05:51:49;;;;;;;;;;;;;;;15.48;63.39;98630.63;4941513;29;19918;-77
2023/10/21 05:54:14;;;;;;;;;;;;;;;15.49;63.40;98642.31;4937067;28;19926;-74
2023/10/21 05:56:39;;;;;;;;;;;;;;;15.48;63.33;98640.72;4951868;29;19923;-74
2023/10/21 05:59:04;;;;;;;;;;;;;;;15.47;63.11;98653.53;4941461;29;19923;-74
2023/10/21 06:01:30;;;;;;;;;;;;;;;15.49;63.37;98653.97;4936502;29;20005;-75
2023/10/21 06:03:55;;;;;;;;;;;;;;;15.49;63.33;98658.63;4962057;28;19922;-75
2023/10/21 06:06:22;;;;;;;;;;;;;;;15.49;63.12;98669.50;4943523;29;19970;-74
2023/10/21 06:08:48;;;;;;;;;;;;;;;15.48;63.20;98668.72;4943102;29;20005;-75
2023/10/21 06:11:13;;;;;;;;;;;;;;;15.48;63.16;98671.44;4939897;29;20327;-76
2023/10/21 06:13:39;;;;;;;;;;;;;;;15.48;63.23;98676.88;4936459;29;19918;-75
2023/10/21 06:16:04;;;;;;;;;;;;;;;15.47;63.60;98683.47;4952915;29;19962;-75
2023/10/21 06:18:29;;;;;;;;;;;;;;;15.47;63.57;98690.81;4946248;28;20410;-74
2023/10/21 06:20:55;;;;;;;;;;;;;;;15.46;63.34;98706.34;4934373;29;19925;-75
2023/10/21 06:23:21;;;;;;;;;;;;;;;15.45;63.33;98703.97;4937469;29;19933;-75
2023/10/21 06:25:47;;;;;;;;;;;;;;;15.45;63.73;98710.19;4937299;29;19981;-76
2023/10/21 06:28:13;;;;;;;;;;;;;;;15.44;63.48;98708.56;4935796;29;20347;-75
2023/10/21 06:30:41;;;;;;;;;;;;;;;15.44;63.85;98718.66;4936206;29;20295;-75
2023/10/21 06:33:09;;;;;;;;;;;;;;;15.43;63.60;98717.88;4938396;29;19930;-75
2023/10/21 06:35:34;;;;;;;;;;;;;;;15.43;63.53;98719.81;4934517;29;20275;-74
2023/10/21 06:37:59;;;;;;;;;;;;;;;15.42;63.69;98729.06;4950026;28;20369;-73
2023/10/21 06:40:24;;;;;;;;;;;;;;;15.44;63.89;98735.00;4946553;29;20020;-76
2023/10/21 06:42:50;;;;;;;;;;;;;;;15.42;63.85;98738.06;4954813;28;19923;-75
2023/10/21 06:45:15;;;;;;;;;;;;;;;15.40;63.63;98743.00;4955122;28;19973;-74
2023/10/21 06:47:40;;;;;;;;;;;;;;;15.41;63.67;98739.16;4935864;29;19987;-75
2023/10/21 06:50:06;;;;;;;;;;;;;;;15.41;63.61;98752.75;4935387;29;20378;-76
2023/10/21 06:52:31;;;;;;;;;;;;;;;15.41;63.76;98747.31;4950645;29;20020;-75
2023/10/21 06:54:56;;;;;;;;;;;;;;;15.40;63.92;98759.34;4954887;28;19945;-76
2023/10/21 06:57:22;;;;;;;;;;;;;;;15.39;63.74;98760.44;4947986;28;19930;-75
2023/10/21 06:59:47;;;;;;;;;;;;;;;15.39;64.07;98770.53;4943183;28;20066;-75
2023/10/21 07:02:13;;;;;;;;;;;;;;;15.39;64.19;98776.75;4948062;29;19933;-75
2023/10/21 07:04:38;;;;;;;;;;;;;;;15.39;64.20;98790.38;4953717;28;19962;-74
2023/10/21 07:07:03;;;;;;;;;;;;;;;15.37;64.16;98798.03;4942739;28;19993;-75
2023/10/21 07:09:30;;;;;;;;;;;;;;;15.35;64.59;98812.00;4936613;29;19918;-74
2023/10/21 07:11:55;;;;;;;;;;;;;;;15.34;64.37;98810.38;4956733;28;20017;-76
2023/10/21 07:14:23;;;;;;;;;;;;;;;15.31;64.32;98819.19;4942580;29;20344;-80
2023/10/21 07:16:49;;;;;;;;;;;;;;;15.30;64.63;98816.78;4948155;29;19925;-80
2023/10/21 07:19:14;;;;;;;;;;;;;;;15.29;64.65;98826.84;4948697;29;20037;-76
2023/10/21 07:21:39;;;;;;;;;;;;;;;15.32;64.31;98841.72;4952394;28;19926;-78
2023/10/21 07:24:06;;;;;;;;;;;;;;;15.31;64.55;98854.53;4964179;28;20919;-75
2023/10/21 07:26:32;;;;;;;;;;;;;;;15.31;64.78;98859.19;4945995;29;19924;-76
2023/10/21 07:28:58;;;;;;;;;;;;;;;15.32;64.65;98855.34;4935716;29;19926;-76
2023/10/21 07:31:23;;;;;;;;;;;;;;;15.32;64.56;98856.16;4942707;29;19914;-76
2023/10/21 07:33:50;;;;;;;;;;;;;;;15.33;64.69;98874.06;4963456;28;20363;-76
2023/10/21 07:36:15;;;;;;;;;;;;;;;15.33;64.53;98892.31;4941178;29;20350;-78
2023/10/21 07:38:41;;;;;;;;;;;;;;;15.29;64.72;98889.41;4946389;28;19926;-76
2023/10/21 07:41:12;;;;;;;;;;;;;;;15.28;64.53;98896.00;4953423;28;19982;-78
2023/10/21 07:43:37;;;;;;;;;;;;;;;15.29;64.84;98905.75;4959610;28;20041;-75
2023/10/21 07:46:03;;;;;;;;;;;;;;;15.30;64.80;98910.06;4944341;28;20382;-72
2023/10/21 07:48:28;;;;;;;;;;;;;;;15.33;64.70;98920.31;4953344;29;19926;-74
2023/10/21 07:50:54;;;;;;;;;;;;;;;15.35;65.30;98920.81;4952242;28;19914;-78
2023/10/21 07:53:20;;;;;;;;;;;;;;;15.36;65.48;98927.84;4963845;28;19930;-76
2023/10/21 07:55:45;;;;;;;;;;;;;;;15.36;66.06;98925.09;4952678;29;20053;-73
2023/10/21 07:58:11;;;;;;;;;;;;;;;15.37;65.50;98934.06;4952532;28;20020;-76
2023/10/21 08:00:36;;;;;;;;;;;;;;;15.40;65.26;98938.91;4949192;29;19919;-77
2023/10/21 08:03:01;;;;;;;;;;;;;;;15.40;65.22;98941.63;4948821;28;20408;-73
2023/10/21 08:05:28;;;;;;;;;;;;;;;15.44;65.10;98939.03;4953491;28;19929;-73
2023/10/21 08:07:53;;;;;;;;;;;;;;;15.44;64.92;98948.00;4937714;29;19919;-74
2023/10/21 08:10:19;;;;;;;;;;;;;;;15.46;64.88;98940.31;4939656;28;20259;-72
2023/10/21 08:12:44;;;;;;;;;;;;;;;15.46;65.01;98944.97;4938187;29;20012;-73
2023/10/21 08:15:09;;;;;;;;;;;;;;;15.47;64.92;98955.56;4959743;28;19962;-76
2023/10/21 08:17:35;;;;;;;;;;;;;;;15.48;65.19;98969.94;4938536;29;19919;-84
2023/10/21 08:20:01;;;;;;;;;;;;;;;15.47;65.23;98960.16;4954978;29;19930;-82
2023/10/21 08:22:26;;;;;;;;;;;;;;;15.47;65.12;98969.16;4952811;29;19918;-81
2023/10/21 08:24:52;;;;;;;;;;;;;;;15.48;65.09;98975.38;4936056;29;20461;-73
2023/10/21 08:27:18;;;;;;;;;;;;;;;15.50;64.80;98978.59;4959489;28;19969;-73
2023/10/21 08:29:43;;;;;;;;;;;;;;;15.51;64.98;98980.19;4947703;29;19918;-73
2023/10/21 08:32:08;;;;;;;;;;;;;;;15.49;65.05;98985.94;4947419;28;19911;-73
2023/10/21 08:34:37;;;;;;;;;;;;;;;15.50;64.67;98992.22;4946253;29;19915;-78
2023/10/21 08:37:07;;;;;;;;;;;;;;;15.50;64.63;98993.00;4967863;28;20382;-75
2023/10/21 08:39:32;;;;;;;;;;;;;;;15.50;64.77;99003.09;4957245;28;19918;-73
2023/10/21 08:41:59;;;;;;;;;;;;;;;15.49;64.77;98996.81;4936076;28;19910;-74
2023/10/21 08:44:25;;;;;;;;;;;;;;;15.51;64.86;99008.19;4936323;29;19933;-75
2023/10/21 08:46:53;;;;;;;;;;;;;;;15.52;64.65;98998.09;4948807;29;19926;-76
2023/10/21 08:49:19;;;;;;;;;;;;;;;15.52;64.93;99011.72;4945763;28;20018;-72
2023/10/21 08:51:45;;;;;;;;;;;;;;;15.53;65.09;99014.13;4942530;28;20325;-74
2023/10/21 08:54:12;;;;;;;;;;;;;;;15.53;64.77;99014.13;4946489;29;19922;-75
2023/10/21 08:56:37;;;;;;;;;;;;;;;15.54;64.91;99007.56;4951199;29;19970;-79
2023/10/21 08:59:03;;;;;;;;;;;;;;;15.57;64.89;99012.38;4946078;28;20264;-78
2023/10/21 09:01:29;;;;;;;;;;;;;;;15.56;64.88;99021.66;4946599;29;19969;-77
2023/10/21 09:03:55;;;;;;;;;;;;;;;15.57;65.17;99020.56;4946709;29;19921;-76
2023/10/21 09:06:21;;;;;;;;;;;;;;;15.57;64.88;99033.34;4950739;28;20190;-77
2023/10/21 09:08:49;;;;;;;;;;;;;;;15.55;64.84;99033.66;4937693;29;20022;-78
2023/10/21 09:11:16;;;;;;;;;;;;;;;15.54;64.77;99045.66;4946983;29;19974;-77
2023/10/21 09:13:42;;;;;;;;;;;;;;;15.54;64.79;99053.03;4950828;28;19914;-77
2023/10/21 09:16:25;;;;;;;;;;;;;;;15.55;64.78;99051.91;4953929;28;20184;-73
2023/10/21 09:19:04;;;;;;;;;;;;;;;15.56;64.70;99057.03;4953784;28;20009;-79
2023/10/21 09:21:38;;;;;;;;;;;;;;;15.55;64.48;99057.38;4943276;28;20034;-78
2023/10/21 09:24:09;;;;;;;;;;;;;;;15.56;64.60;99062.47;4949733;28;19914;-77
2023/10/21 09:26:41;;;;;;;;;;;;;;;15.59;64.55;99069.19;4949999;28;20396;-75
2023/10/21 09:29:11;;;;;;;;;;;;;;;15.60;64.50;99065.38;4940679;29;19914;-79
2023/10/21 09:31:42;;;;;;;;;;;;;;;15.59;64.73;99070.00;4943843;29;19919;-76
2023/10/21 09:34:08;;;;;;;;;;;;;;;15.60;64.85;99076.25;4949006;29;20317;-75
2023/10/21 09:36:42;;;;;;;;;;;;;;;15.61;64.57;99074.34;4943106;28;20410;-74
2023/10/21 09:39:08;;;;;;;;;;;;;;;15.62;64.64;99075.94;4936470;29;19942;-82
2023/10/21 09:41:33;;;;;;;;;;;;;;;15.62;64.58;99073.22;4951247;29;20351;-70
2023/10/21 09:44:01;;;;;;;;;;;;;;;15.61;64.33;99086.03;4953396;29;20346;-72
2023/10/21 09:46:28;;;;;;;;;;;;;;;15.63;64.41;99091.16;4940988;29;19920;-76
2023/10/21 09:48:57;;;;;;;;;;;;;;;15.64;64.42;99096.28;4943808;28;19915;-80
2023/10/21 09:51:24;;;;;;;;;;;;;;;15.64;64.67;99093.56;4947722;28;20330;-79
2023/10/21 09:53:56;;;;;;;;;;;;;;;15.65;64.77;99099.78;4940203;29;19918;-80
2023/10/21 09:56:22;;;;;;;;;;;;;;;15.66;64.44;99098.69;4949433;29;19914;-79
2023/10/21 09:58:48;;;;;;;;;;;;;;;15.65;64.59;99100.63;4944841;28;19918;-81
2023/10/21 10:01:14;;;;;;;;;;;;;;;15.65;64.55;99097.88;4950460;28;20335;-80
2023/10/21 10:03:41;;;;;;;;;;;;;;;15.67;64.86;99103.00;4948719;29;19915;-80
2023/10/21 10:06:07;;;;;;;;;;;;;;;15.68;64.66;99101.91;4944322;29;19918;-81
2023/10/21 10:08:34;;;;;;;;;;;;;;;15.67;64.46;99111.97;4941741;29;19927;-78
2023/10/21 10:11:06;;;;;;;;;;;;;;;15.67;64.69;99103.00;4946684;29;19937;-78
2023/10/21 10:13:32;;;;;;;;;;;;;;;15.65;64.38;99118.84;4948174;28;19914;-80
2023/10/21 10:16:17;;;;;;;;;;;;;;;15.66;64.40;99115.03;4950510;28;19929;-79
2023/10/21 10:18:46;;;;;;;;;;;;;;;15.64;64.71;99128.13;4946069;29;19914;-79
2023/10/21 10:21:13;;;;;;;;;;;;;;;15.66;64.39;99115.81;4950293;28;19915;-79
2023/10/21 10:23:38;;;;;;;;;;;;;;;15.70;64.35;99124.16;4949840;28;19918;-79
2023/10/21 10:26:04;;;;;;;;;;;;;;;15.71;64.27;99114.91;4948280;28;19922;-79
2023/10/21 10:28:31;;;;;;;;;;;;;;;15.72;64.49;99125.47;4951899;29;20335;-80
2023/10/21 10:30:56;;;;;;;;;;;;;;;15.72;64.46;99127.38;4962408;28;19934;-80
2023/10/21 10:33:28;;;;;;;;;;;;;;;15.73;64.43;99123.56;4948591;28;20047;-76
2023/10/21 10:35:55;;;;;;;;;;;;;;;15.74;64.18;99123.22;4951198;28;20358;-77
2023/10/21 10:38:34;;;;;;;;;;;;;;;15.75;64.06;99122.13;4950376;28;20438;-76
2023/10/21 10:41:06;;;;;;;;;;;;;;;15.77;64.41;99128.06;4948899;29;20252;-78
2023/10/21 10:43:32;;;;;;;;;;;;;;;15.78;64.07;99129.66;4943599;28;20274;-77
2023/10/21 10:46:00;;;;;;;;;;;;;;;15.81;64.23;99138.31;4950595;29;19914;-79
2023/10/21 10:48:26;;;;;;;;;;;;;;;15.83;64.28;99136.88;4941270;29;19918;-77
2023/10/21 10:50:55;;;;;;;;;;;;;;;15.84;63.93;99127.56;4946846;29;19923;-80
2023/10/21 10:53:21;;;;;;;;;;;;;;;15.82;64.22;99129.00;4948276;28;19919;-78
2023/10/21 10:55:48;;;;;;;;;;;;;;;15.82;63.82;99126.28;4949728;28;19930;-78
2023/10/21 10:58:14;;;;;;;;;;;;;;;15.82;64.09;99132.53;4949533;29;20347;-78
2023/10/21 11:00:40;;;;;;;;;;;;;;;15.82;64.12;99142.63;4950221;29;19914;-79
2023/10/21 11:03:08;;;;;;;;;;;;;;;15.84;63.94;99129.50;4951465;29;19925;-79
2023/10/21 11:05:37;;;;;;;;;;;;;;;15.85;64.00;99123.75;4945262;29;19922;-78
2023/10/21 11:08:04;;;;;;;;;;;;;;;15.87;64.19;99143.28;4949843;29;19926;-77
2023/10/21 11:10:30;;;;;;;;;;;;;;;15.90;63.77;99150.00;4949143;29;19969;-77
2023/10/21 11:12:55;;;;;;;;;;;;;;;15.90;63.81;99153.56;4966456;28;20329;-78
2023/10/21 11:15:21;;;;;;;;;;;;;;;15.90;63.90;99153.56;4950254;28;19931;-78
2023/10/21 11:17:47;;;;;;;;;;;;;;;15.93;63.44;99143.94;4949170;28;20747;-78
2023/10/21 11:20:13;;;;;;;;;;;;;;;15.95;63.48;99156.13;4952606;28;19918;-77
2023/10/21 11:22:39;;;;;;;;;;;;;;;15.95;63.89;99150.69;4934515;28;20686;-77
2023/10/21 11:25:04;;;;;;;;;;;;;;;15.95;63.80;99160.75;4947476;29;19965;-77
2023/10/21 11:27:29;;;;;;;;;;;;;;;15.97;63.52;99158.50;4946405;28;19922;-77
2023/10/21 11:29:55;;;;;;;;;;;;;;;15.98;63.45;99160.94;4947826;29;20001;-78
2023/10/21 11:32:30;;;;;;;;;;;;;;;16.00;63.46;99155.16;4950013;29;20401;-75
2023/10/21 11:35:01;;;;;;;;;;;;;;;16.01;63.43;99157.56;4946590;29;20286;-77
2023/10/21 11:37:26;;;;;;;;;;;;;;;16.01;63.77;99157.56;4939775;29;19915;-78
2023/10/21 11:39:52;;;;;;;;;;;;;;;16.00;63.30;99150.53;4942811;29;19925;-78
2023/10/21 11:42:17;;;;;;;;;;;;;;;15.99;63.73;99164.44;4945351;29;20355;-78
2023/10/21 11:44:53;;;;;;;;;;;;;;;15.97;63.46;99166.69;4940739;29;19918;-79
2023/10/21 11:47:18;;;;;;;;;;;;;;;15.98;63.41;99160.13;4950063;29;19922;-78
2023/10/21 11:49:45;;;;;;;;;;;;;;;16.00;63.46;99166.03;4951328;28;19925;-78
2023/10/21 11:52:11;;;;;;;;;;;;;;;16.02;63.46;99174.72;4942752;28;20289;-78
2023/10/21 11:54:39;;;;;;;;;;;;;;;16.02;63.24;99172.78;4940348;28;20563;-78
2023/10/21 12:23:31;;;;;;;;;;;;;;;16.17;62.99;99168.00;4939429;29;19921;-79
2023/10/21 12:26:19;;;;;;;;;;;;;;;16.17;62.74;99162.56;4940123;29;20280;-78
2023/10/21 12:36:42;;;;;;;;;;;;;;;16.21;63.12;99182.59;4944169;29;19969;-78
2023/10/21 12:41:52;;;;;;;;;;;;;;;16.23;63.14;99175.72;4947565;28;19922;-78
2023/10/21 12:44:23;;;;;;;;;;;;;;;16.25;62.74;99180.81;4944628;28;20005;-80
2023/10/21 12:46:55;;;;;;;;;;;;;;;16.25;63.12;99182.75;4947525;29;19922;-78
2023/10/21 12:49:21;;;;;;;;;;;;;;;16.25;62.72;99183.56;4949034;28;20312;-79
2023/10/21 12:51:46;;;;;;;;;;;;;;;16.26;62.80;99187.09;4950216;28;19926;-79
2023/10/21 12:54:11;;;;;;;;;;;;;;;16.26;62.59;99187.09;4944529;28;19933;-78
2023/10/21 12:56:40;;;;;;;;;;;;;;;16.25;62.44;99191.72;4934111;29;19985;-82
2023/10/21 12:59:08;;;;;;;;;;;;;;;16.28;62.70;99182.13;4929248;29;20327;-78
2023/10/21 13:01:34;;;;;;;;;;;;;;;16.28;62.53;99182.94;4950661;29;19919;-77
2023/10/21 13:03:59;;;;;;;;;;;;;;;16.28;62.68;99182.94;4951430;28;20307;-78
2023/10/21 13:06:25;;;;;;;;;;;;;;;16.30;62.41;99177.94;4948902;28;19918;-80
2023/10/21 13:08:55;;;;;;;;;;;;;;;16.30;62.57;99188.84;4949992;28;19985;-77
2023/10/21 13:11:20;;;;;;;;;;;;;;;16.32;62.38;99194.78;4931763;29;19931;-77
2023/10/21 13:13:46;;;;;;;;;;;;;;;16.33;62.51;99190.97;4938867;29;19929;-78
2023/10/21 13:16:11;;;;;;;;;;;;;;;16.35;62.70;99191.41;4947846;29;20386;-79
2023/10/21 13:18:36;;;;;;;;;;;;;;;16.36;62.61;99181.34;4950808;29;19926;-78
2023/10/21 13:21:02;;;;;;;;;;;;;;;16.35;62.46;99196.06;4965460;28;19929;-79